Robins Air Force Base
KWRB : now visible

Airfield :











YOU CAN JOIN US ON...

 
LOGIN :

Register | Disclaimer

   EN    FR    IT 

 









Legend :    VFR   Marginal VFR   IFR   Intensive IFR   Very Intensive IFR
Visi :
Ceiling :
>= 8 km
>= 3000ft
5 to 8 km
1000 to 3000 ft
1500m to 5 km
500 to 1000 ft
800 to 1500m
200 to 500 ft
< 800m
< 200 ft
Symbols :   Thunderstorms  Fog  Heavy snow  Heavy precipitations  Wind > 20 kt






- Airport Elevation : 294 ft


KWRB - Robins Air Force Base

CURRENT METAR :
  • 250455Z AUTO 00000KT 10SM CLR 23/21 A2990 RMK AO2 SLP125 T02270206 403320203

EXPIRED METARs :
  • 250355Z AUTO 00000KT 10SM CLR 23/20 A2991 RMK AO2 SLP128 T02280199
  • 250255Z AUTO 00000KT 10SM CLR 24/21 A2990 RMK AO2 SLP125 T02420205 52009
  • 250155Z AUTO 00000KT 10SM CLR 25/21 A2989 RMK AO2 SLP121 T02480205
  • 250055Z AUTO 00000KT 10SM CLR 27/21 A2988 RMK AO2 SLP118 T02720205

TAF TAF KWRB
Valid from the 25 at 00:00 until the 26 at 06:00 UTC


250000Z 2500/2606 25009KT 9999 VCSH SCT040 SCT120 QNH2996INS
BECMG 2505/2506 VRB06KT 9999 NSW BKN040 QNH2988INS
BECMG 2513/2514 25009KT 9999 SCT020 BKN050 QNH2992INS
BECMG 2523/2524 VRB06KT 9999 VCSH SCT030 BKN150 QNH2984INS TX31/2521Z TN21/2511Z
KZTL FIR / North America



MET'MAP, your aeronautical weather chart ! - Copyright ORBIFLY December 2007 - Disclaimer

ORBIFLY MET'MAP TEAM :

Programming & Development : Alexandra Zaïnal
Original concept : Baudouin d'Aumeries
Technical & hardware support : Manuel Goepfert
Assistance : Marc-Olivier Méhu




SOURCES & CREDITS :

   NOAA       Earth
Advisory